Terminal Aerodrome Forecast
Issued by NWS

Home | Current Version | Previous Version | Text Only | Print | Product List | Glossary On
Versions: 1 2 3 4 5 6 7 8 9 10 11 12 13
000
FTUS46 KSGX 240520
TAFCRQ
TAF
KCRQ 240520Z 2406/2506 VRB04KT P6SM BKN020
     FM241000 VRB04KT P6SM VCSH SCT025 OVC030
     FM241800 24009KT P6SM SCT035
     FM250200 VRB04KT P6SM BKN028=

USA.gov is the U.S. government's official web portal to all federal, state and local government web resources and services.